sensor_id;sensor_type;location;lat;lon;timestamp;P1;durP1;ratioP1;P2;durP2;ratioP2
12435;SDS011;6282;51.440;6.938;2022-07-11T00:01:23;3.08;;;2.10;;
12435;SDS011;6282;51.440;6.938;2022-07-11T00:03:50;3.63;;;1.75;;
12435;SDS011;6282;51.440;6.938;2022-07-11T00:06:17;5.13;;;2.08;;
12435;SDS011;6282;51.440;6.938;2022-07-11T00:08:44;5.35;;;2.00;;
12435;SDS011;6282;51.440;6.938;2022-07-11T00:11:10;3.55;;;2.08;;
12435;SDS011;6282;51.440;6.938;2022-07-11T00:13:37;5.22;;;2.10;;
12435;SDS011;6282;51.440;6.938;2022-07-11T00:16:06;5.97;;;2.20;;
12435;SDS011;6282;51.440;6.938;2022-07-11T00:18:33;5.00;;;1.70;;
12435;SDS011;6282;51.440;6.938;2022-07-11T00:21:00;5.40;;;1.90;;
12435;SDS011;6282;51.440;6.938;2022-07-11T00:23:27;4.15;;;2.13;;
12435;SDS011;6282;51.440;6.938;2022-07-11T00:25:54;3.42;;;1.92;;
12435;SDS011;6282;51.440;6.938;2022-07-11T00:28:21;2.63;;;1.65;;
12435;SDS011;6282;51.440;6.938;2022-07-11T00:30:48;1.95;;;1.77;;
12435;SDS011;6282;51.440;6.938;2022-07-11T00:33:16;2.65;;;1.77;;
12435;SDS011;6282;51.440;6.938;2022-07-11T00:35:43;3.67;;;1.80;;
12435;SDS011;6282;51.440;6.938;2022-07-11T00:38:10;2.53;;;1.92;;
12435;SDS011;6282;51.440;6.938;2022-07-11T00:40:37;3.20;;;1.90;;
12435;SDS011;6282;51.440;6.938;2022-07-11T00:43:04;3.05;;;1.98;;
12435;SDS011;6282;51.440;6.938;2022-07-11T00:45:31;3.40;;;2.05;;
12435;SDS011;6282;51.440;6.938;2022-07-11T00:47:58;3.45;;;1.70;;
12435;SDS011;6282;51.440;6.938;2022-07-11T00:50:27;2.35;;;1.70;;
12435;SDS011;6282;51.440;6.938;2022-07-11T00:52:54;3.55;;;1.80;;
12435;SDS011;6282;51.440;6.938;2022-07-11T00:55:22;4.28;;;1.90;;
12435;SDS011;6282;51.440;6.938;2022-07-11T00:57:49;6.20;;;2.25;;
12435;SDS011;6282;51.440;6.938;2022-07-11T01:00:18;2.53;;;2.05;;
12435;SDS011;6282;51.440;6.938;2022-07-11T01:02:45;5.13;;;1.90;;
12435;SDS011;6282;51.440;6.938;2022-07-11T01:05:12;3.20;;;2.00;;
12435;SDS011;6282;51.440;6.938;2022-07-11T01:07:40;5.10;;;1.98;;
12435;SDS011;6282;51.440;6.938;2022-07-11T01:10:07;3.92;;;1.65;;
12435;SDS011;6282;51.440;6.938;2022-07-11T01:12:34;2.10;;;1.55;;
12435;SDS011;6282;51.440;6.938;2022-07-11T01:15:02;5.93;;;1.80;;
12435;SDS011;6282;51.440;6.938;2022-07-11T01:17:29;5.60;;;1.73;;
12435;SDS011;6282;51.440;6.938;2022-07-11T01:19:56;4.82;;;1.90;;
12435;SDS011;6282;51.440;6.938;2022-07-11T01:22:23;5.32;;;2.03;;
12435;SDS011;6282;51.440;6.938;2022-07-11T01:24:52;1.98;;;1.50;;
12435;SDS011;6282;51.440;6.938;2022-07-11T01:27:20;2.28;;;1.75;;
12435;SDS011;6282;51.440;6.938;2022-07-11T01:29:48;3.80;;;1.63;;
12435;SDS011;6282;51.440;6.938;2022-07-11T01:32:16;2.70;;;1.88;;
12435;SDS011;6282;51.440;6.938;2022-07-11T01:34:44;4.05;;;1.60;;
12435;SDS011;6282;51.440;6.938;2022-07-11T01:37:11;4.20;;;1.95;;
12435;SDS011;6282;51.440;6.938;2022-07-11T01:39:38;2.72;;;1.65;;
12435;SDS011;6282;51.440;6.938;2022-07-11T01:42:06;2.65;;;1.60;;
12435;SDS011;6282;51.440;6.938;2022-07-11T01:44:33;3.38;;;1.92;;
12435;SDS011;6282;51.440;6.938;2022-07-11T01:47:00;5.78;;;1.88;;
12435;SDS011;6282;51.440;6.938;2022-07-11T01:49:27;3.58;;;2.10;;
12435;SDS011;6282;51.440;6.938;2022-07-11T01:52:05;2.38;;;1.80;;
12435;SDS011;6282;51.440;6.938;2022-07-11T01:54:32;4.65;;;2.40;;
12435;SDS011;6282;51.440;6.938;2022-07-11T01:56:59;2.78;;;1.95;;
12435;SDS011;6282;51.440;6.938;2022-07-11T01:59:27;3.35;;;2.05;;
12435;SDS011;6282;51.440;6.938;2022-07-11T02:01:54;2.67;;;1.80;;
12435;SDS011;6282;51.440;6.938;2022-07-11T02:04:21;3.97;;;2.00;;
12435;SDS011;6282;51.440;6.938;2022-07-11T02:06:47;2.83;;;1.75;;
12435;SDS011;6282;51.440;6.938;2022-07-11T02:09:14;3.08;;;2.13;;
12435;SDS011;6282;51.440;6.938;2022-07-11T02:11:41;5.43;;;2.30;;
12435;SDS011;6282;51.440;6.938;2022-07-11T02:16:39;3.33;;;2.10;;
12435;SDS011;6282;51.440;6.938;2022-07-11T02:19:06;2.22;;;2.03;;
12435;SDS011;6282;51.440;6.938;2022-07-11T02:21:35;5.47;;;1.80;;
12435;SDS011;6282;51.440;6.938;2022-07-11T02:24:03;3.65;;;1.83;;
12435;SDS011;6282;51.440;6.938;2022-07-11T02:26:30;2.55;;;1.83;;
12435;SDS011;6282;51.440;6.938;2022-07-11T02:28:57;4.40;;;1.90;;
12435;SDS011;6282;51.440;6.938;2022-07-11T02:31:24;4.18;;;2.13;;
12435;SDS011;6282;51.440;6.938;2022-07-11T02:33:52;3.17;;;2.20;;
12435;SDS011;6282;51.440;6.938;2022-07-11T02:36:19;2.38;;;1.85;;
12435;SDS011;6282;51.440;6.938;2022-07-11T02:38:46;4.30;;;2.15;;
12435;SDS011;6282;51.440;6.938;2022-07-11T02:41:13;4.97;;;2.17;;
12435;SDS011;6282;51.440;6.938;2022-07-11T02:43:41;3.50;;;1.92;;
12435;SDS011;6282;51.440;6.938;2022-07-11T02:46:08;4.63;;;2.25;;
12435;SDS011;6282;51.440;6.938;2022-07-11T02:48:34;3.45;;;1.70;;
12435;SDS011;6282;51.440;6.938;2022-07-11T02:51:03;3.65;;;1.80;;
12435;SDS011;6282;51.440;6.938;2022-07-11T02:53:29;3.75;;;1.92;;
12435;SDS011;6282;51.440;6.938;2022-07-11T02:55:56;6.13;;;1.70;;
12435;SDS011;6282;51.440;6.938;2022-07-11T02:58:23;5.60;;;1.70;;
12435;SDS011;6282;51.440;6.938;2022-07-11T03:00:50;5.28;;;1.90;;
12435;SDS011;6282;51.440;6.938;2022-07-11T03:03:17;6.68;;;2.00;;
12435;SDS011;6282;51.440;6.938;2022-07-11T03:05:43;5.15;;;1.80;;
12435;SDS011;6282;51.440;6.938;2022-07-11T03:08:12;3.20;;;1.80;;
12435;SDS011;6282;51.440;6.938;2022-07-11T03:10:39;3.95;;;1.70;;
12435;SDS011;6282;51.440;6.938;2022-07-11T03:13:06;3.58;;;1.70;;
12435;SDS011;6282;51.440;6.938;2022-07-11T03:15:32;4.50;;;1.88;;
12435;SDS011;6282;51.440;6.938;2022-07-11T03:17:59;3.30;;;2.00;;
12435;SDS011;6282;51.440;6.938;2022-07-11T03:20:26;2.38;;;1.75;;
12435;SDS011;6282;51.440;6.938;2022-07-11T03:22:53;3.05;;;1.60;;
12435;SDS011;6282;51.440;6.938;2022-07-11T03:25:21;1.52;;;1.25;;
12435;SDS011;6282;51.440;6.938;2022-07-11T03:27:48;1.38;;;1.20;;
12435;SDS011;6282;51.440;6.938;2022-07-11T03:30:15;1.45;;;1.00;;
12435;SDS011;6282;51.440;6.938;2022-07-11T03:32:42;1.92;;;1.25;;
12435;SDS011;6282;51.440;6.938;2022-07-11T03:35:09;3.22;;;1.30;;
12435;SDS011;6282;51.440;6.938;2022-07-11T03:37:53;2.47;;;1.13;;
12435;SDS011;6282;51.440;6.938;2022-07-11T03:40:21;2.97;;;1.27;;
12435;SDS011;6282;51.440;6.938;2022-07-11T03:42:48;4.55;;;1.35;;
12435;SDS011;6282;51.440;6.938;2022-07-11T03:45:15;1.65;;;0.90;;
12435;SDS011;6282;51.440;6.938;2022-07-11T03:47:43;2.50;;;1.20;;
12435;SDS011;6282;51.440;6.938;2022-07-11T03:50:12;1.58;;;1.48;;
12435;SDS011;6282;51.440;6.938;2022-07-11T03:52:39;1.10;;;1.00;;
12435;SDS011;6282;51.440;6.938;2022-07-11T03:55:06;1.70;;;1.20;;
12435;SDS011;6282;51.440;6.938;2022-07-11T03:57:35;3.17;;;1.20;;
12435;SDS011;6282;51.440;6.938;2022-07-11T04:00:03;3.55;;;1.13;;
12435;SDS011;6282;51.440;6.938;2022-07-11T04:02:31;1.20;;;1.10;;
12435;SDS011;6282;51.440;6.938;2022-07-11T04:04:58;2.97;;;1.13;;
12435;SDS011;6282;51.440;6.938;2022-07-11T04:07:25;2.92;;;1.05;;
12435;SDS011;6282;51.440;6.938;2022-07-11T04:09:53;1.33;;;1.23;;
12435;SDS011;6282;51.440;6.938;2022-07-11T04:12:20;1.23;;;1.00;;
12435;SDS011;6282;51.440;6.938;2022-07-11T04:14:48;2.50;;;1.00;;
12435;SDS011;6282;51.440;6.938;2022-07-11T04:17:15;1.52;;;0.98;;
12435;SDS011;6282;51.440;6.938;2022-07-11T04:19:42;1.52;;;1.10;;
12435;SDS011;6282;51.440;6.938;2022-07-11T04:22:09;0.70;;;0.70;;
12435;SDS011;6282;51.440;6.938;2022-07-11T04:24:35;0.85;;;0.70;;
12435;SDS011;6282;51.440;6.938;2022-07-11T04:27:03;1.05;;;0.90;;
12435;SDS011;6282;51.440;6.938;2022-07-11T04:29:30;1.38;;;0.65;;
12435;SDS011;6282;51.440;6.938;2022-07-11T04:31:58;1.15;;;0.90;;
12435;SDS011;6282;51.440;6.938;2022-07-11T04:34:25;1.60;;;0.70;;
12435;SDS011;6282;51.440;6.938;2022-07-11T04:36:52;0.73;;;0.73;;
12435;SDS011;6282;51.440;6.938;2022-07-11T04:39:19;0.80;;;0.80;;
12435;SDS011;6282;51.440;6.938;2022-07-11T04:41:45;0.82;;;0.80;;
12435;SDS011;6282;51.440;6.938;2022-07-11T04:44:12;0.75;;;0.75;;
12435;SDS011;6282;51.440;6.938;2022-07-11T04:46:39;0.93;;;0.82;;
12435;SDS011;6282;51.440;6.938;2022-07-11T04:49:07;2.08;;;0.85;;
12435;SDS011;6282;51.440;6.938;2022-07-11T04:51:34;2.53;;;1.10;;
12435;SDS011;6282;51.440;6.938;2022-07-11T04:54:01;1.02;;;0.95;;
12435;SDS011;6282;51.440;6.938;2022-07-11T04:56:28;0.82;;;0.80;;
12435;SDS011;6282;51.440;6.938;2022-07-11T04:58:55;1.10;;;1.00;;
12435;SDS011;6282;51.440;6.938;2022-07-11T05:01:22;0.70;;;0.70;;
12435;SDS011;6282;51.440;6.938;2022-07-11T05:03:49;0.50;;;0.50;;
12435;SDS011;6282;51.440;6.938;2022-07-11T05:06:18;1.25;;;0.85;;
12435;SDS011;6282;51.440;6.938;2022-07-11T05:08:45;0.80;;;0.80;;
12435;SDS011;6282;51.440;6.938;2022-07-11T05:11:11;0.70;;;0.70;;
12435;SDS011;6282;51.440;6.938;2022-07-11T05:13:39;0.60;;;0.60;;
12435;SDS011;6282;51.440;6.938;2022-07-11T05:16:06;0.60;;;0.55;;
12435;SDS011;6282;51.440;6.938;2022-07-11T05:18:33;0.68;;;0.65;;
12435;SDS011;6282;51.440;6.938;2022-07-11T05:21:00;0.60;;;0.60;;
12435;SDS011;6282;51.440;6.938;2022-07-11T05:23:28;0.75;;;0.60;;
12435;SDS011;6282;51.440;6.938;2022-07-11T05:25:55;0.93;;;0.60;;
12435;SDS011;6282;51.440;6.938;2022-07-11T05:28:22;0.50;;;0.50;;
12435;SDS011;6282;51.440;6.938;2022-07-11T05:30:49;2.95;;;0.55;;
12435;SDS011;6282;51.440;6.938;2022-07-11T05:33:15;0.60;;;0.60;;
12435;SDS011;6282;51.440;6.938;2022-07-11T05:35:42;0.70;;;0.70;;
12435;SDS011;6282;51.440;6.938;2022-07-11T05:38:09;0.55;;;0.52;;
12435;SDS011;6282;51.440;6.938;2022-07-11T05:40:37;1.13;;;0.40;;
12435;SDS011;6282;51.440;6.938;2022-07-11T05:43:04;0.50;;;0.50;;
12435;SDS011;6282;51.440;6.938;2022-07-11T05:45:33;0.65;;;0.50;;
12435;SDS011;6282;51.440;6.938;2022-07-11T05:48:00;0.47;;;0.47;;
12435;SDS011;6282;51.440;6.938;2022-07-11T05:50:27;0.60;;;0.60;;
12435;SDS011;6282;51.440;6.938;2022-07-11T05:52:54;0.50;;;0.50;;
12435;SDS011;6282;51.440;6.938;2022-07-11T05:55:22;0.50;;;0.50;;
12435;SDS011;6282;51.440;6.938;2022-07-11T05:57:50;1.23;;;0.63;;
12435;SDS011;6282;51.440;6.938;2022-07-11T06:00:17;2.00;;;0.52;;
12435;SDS011;6282;51.440;6.938;2022-07-11T06:02:46;0.95;;;0.60;;
12435;SDS011;6282;51.440;6.938;2022-07-11T06:05:13;0.98;;;0.70;;
12435;SDS011;6282;51.440;6.938;2022-07-11T06:07:40;1.08;;;0.60;;
12435;SDS011;6282;51.440;6.938;2022-07-11T06:10:24;0.68;;;0.60;;
12435;SDS011;6282;51.440;6.938;2022-07-11T06:12:54;2.30;;;0.73;;
12435;SDS011;6282;51.440;6.938;2022-07-11T06:15:21;0.63;;;0.63;;
12435;SDS011;6282;51.440;6.938;2022-07-11T06:17:48;0.50;;;0.50;;
12435;SDS011;6282;51.440;6.938;2022-07-11T06:20:15;0.88;;;0.60;;
12435;SDS011;6282;51.440;6.938;2022-07-11T06:22:42;2.05;;;0.80;;
12435;SDS011;6282;51.440;6.938;2022-07-11T06:25:09;0.70;;;0.70;;
12435;SDS011;6282;51.440;6.938;2022-07-11T06:27:36;0.60;;;0.60;;
12435;SDS011;6282;51.440;6.938;2022-07-11T06:30:05;1.10;;;0.80;;
12435;SDS011;6282;51.440;6.938;2022-07-11T06:32:32;0.50;;;0.43;;
12435;SDS011;6282;51.440;6.938;2022-07-11T06:34:59;0.82;;;0.80;;
12435;SDS011;6282;51.440;6.938;2022-07-11T06:37:26;0.80;;;0.80;;
12435;SDS011;6282;51.440;6.938;2022-07-11T06:39:53;0.80;;;0.80;;
12435;SDS011;6282;51.440;6.938;2022-07-11T06:42:20;1.55;;;0.60;;
12435;SDS011;6282;51.440;6.938;2022-07-11T06:44:46;1.33;;;0.65;;
12435;SDS011;6282;51.440;6.938;2022-07-11T06:47:15;0.60;;;0.60;;
12435;SDS011;6282;51.440;6.938;2022-07-11T06:49:41;3.55;;;0.60;;
12435;SDS011;6282;51.440;6.938;2022-07-11T06:52:09;2.40;;;0.80;;
12435;SDS011;6282;51.440;6.938;2022-07-11T06:54:35;2.72;;;1.05;;
12435;SDS011;6282;51.440;6.938;2022-07-11T06:57:02;0.52;;;0.52;;
12435;SDS011;6282;51.440;6.938;2022-07-11T06:59:29;1.25;;;0.70;;
12435;SDS011;6282;51.440;6.938;2022-07-11T07:01:56;0.80;;;0.80;;
12435;SDS011;6282;51.440;6.938;2022-07-11T07:04:25;2.13;;;0.90;;
12435;SDS011;6282;51.440;6.938;2022-07-11T07:06:52;0.65;;;0.65;;
12435;SDS011;6282;51.440;6.938;2022-07-11T07:09:19;2.83;;;0.80;;
12435;SDS011;6282;51.440;6.938;2022-07-11T07:11:45;2.25;;;1.15;;
12435;SDS011;6282;51.440;6.938;2022-07-11T07:14:12;1.17;;;0.70;;
12435;SDS011;6282;51.440;6.938;2022-07-11T07:16:39;0.63;;;0.63;;
12435;SDS011;6282;51.440;6.938;2022-07-11T07:19:06;1.40;;;0.90;;
12435;SDS011;6282;51.440;6.938;2022-07-11T07:21:34;1.50;;;0.90;;
12435;SDS011;6282;51.440;6.938;2022-07-11T07:24:01;2.40;;;1.00;;
12435;SDS011;6282;51.440;6.938;2022-07-11T07:26:28;1.15;;;0.70;;
12435;SDS011;6282;51.440;6.938;2022-07-11T07:28:56;0.65;;;0.65;;
12435;SDS011;6282;51.440;6.938;2022-07-11T07:31:23;1.05;;;0.80;;
12435;SDS011;6282;51.440;6.938;2022-07-11T07:33:50;0.90;;;0.80;;
12435;SDS011;6282;51.440;6.938;2022-07-11T07:36:17;1.95;;;0.88;;
12435;SDS011;6282;51.440;6.938;2022-07-11T07:38:45;2.25;;;0.98;;
12435;SDS011;6282;51.440;6.938;2022-07-11T07:41:12;0.93;;;0.80;;
12435;SDS011;6282;51.440;6.938;2022-07-11T07:43:40;1.25;;;1.15;;
12435;SDS011;6282;51.440;6.938;2022-07-11T07:46:07;0.77;;;0.77;;
12435;SDS011;6282;51.440;6.938;2022-07-11T07:48:35;0.65;;;0.65;;
12435;SDS011;6282;51.440;6.938;2022-07-11T07:51:03;1.38;;;0.60;;
12435;SDS011;6282;51.440;6.938;2022-07-11T07:53:30;0.80;;;0.80;;
12435;SDS011;6282;51.440;6.938;2022-07-11T07:55:58;1.10;;;1.00;;
12435;SDS011;6282;51.440;6.938;2022-07-11T07:58:25;1.70;;;1.60;;
12435;SDS011;6282;51.440;6.938;2022-07-11T08:00:52;1.75;;;0.80;;
12435;SDS011;6282;51.440;6.938;2022-07-11T08:03:36;0.63;;;0.50;;
12435;SDS011;6282;51.440;6.938;2022-07-11T08:06:03;1.58;;;0.60;;
12435;SDS011;6282;51.440;6.938;2022-07-11T08:08:30;0.82;;;0.60;;
12435;SDS011;6282;51.440;6.938;2022-07-11T08:10:58;0.60;;;0.60;;
12435;SDS011;6282;51.440;6.938;2022-07-11T08:13:27;1.15;;;0.50;;
12435;SDS011;6282;51.440;6.938;2022-07-11T08:15:54;0.98;;;0.50;;
12435;SDS011;6282;51.440;6.938;2022-07-11T08:18:21;0.60;;;0.60;;
12435;SDS011;6282;51.440;6.938;2022-07-11T08:20:48;0.65;;;0.65;;
12435;SDS011;6282;51.440;6.938;2022-07-11T08:23:15;2.05;;;0.63;;
12435;SDS011;6282;51.440;6.938;2022-07-11T08:25:42;0.60;;;0.60;;
12435;SDS011;6282;51.440;6.938;2022-07-11T08:28:10;0.70;;;0.70;;
12435;SDS011;6282;51.440;6.938;2022-07-11T08:30:37;0.60;;;0.60;;
12435;SDS011;6282;51.440;6.938;2022-07-11T08:33:04;0.82;;;0.70;;
12435;SDS011;6282;51.440;6.938;2022-07-11T08:35:31;0.52;;;0.43;;
12435;SDS011;6282;51.440;6.938;2022-07-11T08:37:58;0.55;;;0.55;;
12435;SDS011;6282;51.440;6.938;2022-07-11T08:40:25;0.85;;;0.60;;
12435;SDS011;6282;51.440;6.938;2022-07-11T08:42:51;1.15;;;0.57;;
12435;SDS011;6282;51.440;6.938;2022-07-11T08:45:26;0.50;;;0.50;;
12435;SDS011;6282;51.440;6.938;2022-07-11T08:47:56;0.70;;;0.70;;
12435;SDS011;6282;51.440;6.938;2022-07-11T08:50:25;1.88;;;0.70;;
12435;SDS011;6282;51.440;6.938;2022-07-11T08:52:53;1.05;;;0.70;;
12435;SDS011;6282;51.440;6.938;2022-07-11T08:55:20;0.95;;;0.60;;
12435;SDS011;6282;51.440;6.938;2022-07-11T08:57:47;0.95;;;0.93;;
12435;SDS011;6282;51.440;6.938;2022-07-11T09:00:14;1.75;;;0.73;;
12435;SDS011;6282;51.440;6.938;2022-07-11T09:02:43;0.68;;;0.68;;
12435;SDS011;6282;51.440;6.938;2022-07-11T09:05:11;1.55;;;0.82;;
12435;SDS011;6282;51.440;6.938;2022-07-11T09:07:42;0.80;;;0.80;;
12435;SDS011;6282;51.440;6.938;2022-07-11T09:10:09;1.27;;;1.00;;
12435;SDS011;6282;51.440;6.938;2022-07-11T09:12:37;1.98;;;0.85;;
12435;SDS011;6282;51.440;6.938;2022-07-11T09:15:34;2.20;;;0.70;;
12435;SDS011;6282;51.440;6.938;2022-07-11T09:18:04;2.63;;;0.95;;
12435;SDS011;6282;51.440;6.938;2022-07-11T09:23:35;0.50;;;0.50;;
12435;SDS011;6282;51.440;6.938;2022-07-11T09:26:20;0.45;;;0.45;;
12435;SDS011;6282;51.440;6.938;2022-07-11T09:28:57;1.27;;;0.50;;
12435;SDS011;6282;51.440;6.938;2022-07-11T09:31:29;0.70;;;0.50;;
12435;SDS011;6282;51.440;6.938;2022-07-11T09:33:59;1.42;;;0.60;;
12435;SDS011;6282;51.440;6.938;2022-07-11T09:36:33;0.55;;;0.55;;
12435;SDS011;6282;51.440;6.938;2022-07-11T09:39:01;0.80;;;0.63;;
12435;SDS011;6282;51.440;6.938;2022-07-11T09:41:30;1.08;;;0.60;;
12435;SDS011;6282;51.440;6.938;2022-07-11T09:44:08;1.42;;;0.70;;
12435;SDS011;6282;51.440;6.938;2022-07-11T09:46:36;0.50;;;0.50;;
12435;SDS011;6282;51.440;6.938;2022-07-11T09:49:05;0.50;;;0.50;;
12435;SDS011;6282;51.440;6.938;2022-07-11T09:51:32;1.52;;;0.50;;
12435;SDS011;6282;51.440;6.938;2022-07-11T09:54:00;0.50;;;0.50;;
12435;SDS011;6282;51.440;6.938;2022-07-11T09:56:33;0.50;;;0.50;;
12435;SDS011;6282;51.440;6.938;2022-07-11T09:59:04;0.98;;;0.60;;
12435;SDS011;6282;51.440;6.938;2022-07-11T10:01:32;0.47;;;0.40;;
12435;SDS011;6282;51.440;6.938;2022-07-11T10:04:00;0.50;;;0.50;;
12435;SDS011;6282;51.440;6.938;2022-07-11T10:06:28;0.55;;;0.50;;
12435;SDS011;6282;51.440;6.938;2022-07-11T10:08:55;0.38;;;0.38;;
12435;SDS011;6282;51.440;6.938;2022-07-11T10:11:22;0.50;;;0.50;;
12435;SDS011;6282;51.440;6.938;2022-07-11T10:13:50;0.85;;;0.50;;
12435;SDS011;6282;51.440;6.938;2022-07-11T10:16:22;1.17;;;0.40;;
12435;SDS011;6282;51.440;6.938;2022-07-11T10:18:53;1.45;;;0.50;;
12435;SDS011;6282;51.440;6.938;2022-07-11T10:21:31;0.32;;;0.32;;
12435;SDS011;6282;51.440;6.938;2022-07-11T10:24:09;0.50;;;0.50;;
12435;SDS011;6282;51.440;6.938;2022-07-11T10:26:50;0.68;;;0.40;;
12435;SDS011;6282;51.440;6.938;2022-07-11T10:29:25;0.50;;;0.50;;
12435;SDS011;6282;51.440;6.938;2022-07-11T10:32:06;0.43;;;0.40;;
12435;SDS011;6282;51.440;6.938;2022-07-11T10:34:34;0.40;;;0.40;;
12435;SDS011;6282;51.440;6.938;2022-07-11T10:37:03;1.10;;;0.70;;
12435;SDS011;6282;51.440;6.938;2022-07-11T10:39:31;0.65;;;0.50;;
12435;SDS011;6282;51.440;6.938;2022-07-11T10:42:00;2.90;;;0.40;;
12435;SDS011;6282;51.440;6.938;2022-07-11T10:44:47;0.50;;;0.50;;
12435;SDS011;6282;51.440;6.938;2022-07-11T10:47:32;0.50;;;0.50;;
12435;SDS011;6282;51.440;6.938;2022-07-11T10:50:02;0.30;;;0.30;;
12435;SDS011;6282;51.440;6.938;2022-07-11T10:52:35;0.85;;;0.40;;
12435;SDS011;6282;51.440;6.938;2022-07-11T10:55:08;0.65;;;0.40;;
12435;SDS011;6282;51.440;6.938;2022-07-11T10:57:53;0.50;;;0.50;;
12435;SDS011;6282;51.440;6.938;2022-07-11T11:00:28;0.47;;;0.47;;
12435;SDS011;6282;51.440;6.938;2022-07-11T11:03:00;0.40;;;0.40;;
12435;SDS011;6282;51.440;6.938;2022-07-11T11:05:42;0.40;;;0.40;;
12435;SDS011;6282;51.440;6.938;2022-07-11T11:14:16;0.50;;;0.45;;
12435;SDS011;6282;51.440;6.938;2022-07-11T11:16:44;0.57;;;0.40;;
12435;SDS011;6282;51.440;6.938;2022-07-11T11:22:12;0.38;;;0.32;;
12435;SDS011;6282;51.440;6.938;2022-07-11T11:24:40;0.43;;;0.30;;
12435;SDS011;6282;51.440;6.938;2022-07-11T11:27:10;0.47;;;0.47;;
12435;SDS011;6282;51.440;6.938;2022-07-11T11:29:43;0.50;;;0.50;;
12435;SDS011;6282;51.440;6.938;2022-07-11T11:32:11;0.40;;;0.40;;
12435;SDS011;6282;51.440;6.938;2022-07-11T11:34:38;0.60;;;0.60;;
12435;SDS011;6282;51.440;6.938;2022-07-11T11:37:06;0.60;;;0.60;;
12435;SDS011;6282;51.440;6.938;2022-07-11T11:39:34;1.52;;;0.57;;
12435;SDS011;6282;51.440;6.938;2022-07-11T11:42:06;0.50;;;0.50;;
12435;SDS011;6282;51.440;6.938;2022-07-11T11:44:38;1.20;;;0.75;;
12435;SDS011;6282;51.440;6.938;2022-07-11T11:47:18;1.73;;;0.70;;
12435;SDS011;6282;51.440;6.938;2022-07-11T11:49:46;0.68;;;0.68;;
12435;SDS011;6282;51.440;6.938;2022-07-11T11:52:14;1.95;;;1.52;;
12435;SDS011;6282;51.440;6.938;2022-07-11T11:54:42;0.80;;;0.80;;
12435;SDS011;6282;51.440;6.938;2022-07-11T11:57:12;0.90;;;0.90;;
12435;SDS011;6282;51.440;6.938;2022-07-11T11:59:39;0.60;;;0.60;;
12435;SDS011;6282;51.440;6.938;2022-07-11T12:02:06;0.70;;;0.70;;
12435;SDS011;6282;51.440;6.938;2022-07-11T12:04:34;1.20;;;1.10;;
12435;SDS011;6282;51.440;6.938;2022-07-11T12:07:02;0.60;;;0.60;;
12435;SDS011;6282;51.440;6.938;2022-07-11T12:09:30;0.73;;;0.60;;
12435;SDS011;6282;51.440;6.938;2022-07-11T12:12:17;0.52;;;0.52;;
12435;SDS011;6282;51.440;6.938;2022-07-11T12:15:03;1.10;;;1.08;;
12435;SDS011;6282;51.440;6.938;2022-07-11T12:17:32;0.60;;;0.60;;
12435;SDS011;6282;51.440;6.938;2022-07-11T12:19:59;0.95;;;0.88;;
12435;SDS011;6282;51.440;6.938;2022-07-11T12:22:26;0.50;;;0.50;;
12435;SDS011;6282;51.440;6.938;2022-07-11T12:24:53;0.40;;;0.40;;
12435;SDS011;6282;51.440;6.938;2022-07-11T12:27:23;0.68;;;0.68;;
12435;SDS011;6282;51.440;6.938;2022-07-11T12:29:51;1.73;;;0.80;;
12435;SDS011;6282;51.440;6.938;2022-07-11T12:32:20;0.50;;;0.50;;
12435;SDS011;6282;51.440;6.938;2022-07-11T12:34:48;0.63;;;0.60;;
12435;SDS011;6282;51.440;6.938;2022-07-11T12:37:16;1.48;;;0.70;;
12435;SDS011;6282;51.440;6.938;2022-07-11T12:39:48;0.73;;;0.50;;
12435;SDS011;6282;51.440;6.938;2022-07-11T12:42:21;0.60;;;0.60;;
12435;SDS011;6282;51.440;6.938;2022-07-11T12:44:57;1.60;;;0.70;;
12435;SDS011;6282;51.440;6.938;2022-07-11T12:47:25;0.73;;;0.65;;
12435;SDS011;6282;51.440;6.938;2022-07-11T12:49:54;0.70;;;0.70;;
12435;SDS011;6282;51.440;6.938;2022-07-11T12:52:21;0.50;;;0.50;;
12435;SDS011;6282;51.440;6.938;2022-07-11T12:54:48;0.60;;;0.60;;
12435;SDS011;6282;51.440;6.938;2022-07-11T12:57:20;0.60;;;0.60;;
12435;SDS011;6282;51.440;6.938;2022-07-11T12:59:48;3.22;;;0.73;;
12435;SDS011;6282;51.440;6.938;2022-07-11T13:02:15;0.57;;;0.57;;
12435;SDS011;6282;51.440;6.938;2022-07-11T13:04:46;0.57;;;0.57;;
12435;SDS011;6282;51.440;6.938;2022-07-11T13:07:23;0.52;;;0.52;;
12435;SDS011;6282;51.440;6.938;2022-07-11T13:10:09;0.70;;;0.70;;
12435;SDS011;6282;51.440;6.938;2022-07-11T13:12:38;0.60;;;0.60;;
12435;SDS011;6282;51.440;6.938;2022-07-11T13:15:07;0.80;;;0.70;;
12435;SDS011;6282;51.440;6.938;2022-07-11T13:17:35;1.27;;;0.50;;
12435;SDS011;6282;51.440;6.938;2022-07-11T13:20:03;0.60;;;0.60;;
12435;SDS011;6282;51.440;6.938;2022-07-11T13:22:30;0.80;;;0.70;;
12435;SDS011;6282;51.440;6.938;2022-07-11T13:24:57;0.50;;;0.50;;
12435;SDS011;6282;51.440;6.938;2022-07-11T13:27:24;2.15;;;0.57;;
12435;SDS011;6282;51.440;6.938;2022-07-11T13:29:51;0.85;;;0.70;;
12435;SDS011;6282;51.440;6.938;2022-07-11T13:32:19;0.75;;;0.68;;
12435;SDS011;6282;51.440;6.938;2022-07-11T13:34:46;1.55;;;0.60;;
12435;SDS011;6282;51.440;6.938;2022-07-11T13:37:15;0.52;;;0.52;;
12435;SDS011;6282;51.440;6.938;2022-07-11T13:39:42;0.73;;;0.73;;
12435;SDS011;6282;51.440;6.938;2022-07-11T13:42:09;0.60;;;0.60;;
12435;SDS011;6282;51.440;6.938;2022-07-11T13:44:36;0.60;;;0.60;;
12435;SDS011;6282;51.440;6.938;2022-07-11T13:47:03;0.95;;;0.70;;
12435;SDS011;6282;51.440;6.938;2022-07-11T13:49:31;0.85;;;0.80;;
12435;SDS011;6282;51.440;6.938;2022-07-11T13:51:58;0.70;;;0.70;;
12435;SDS011;6282;51.440;6.938;2022-07-11T13:54:25;1.02;;;0.80;;
12435;SDS011;6282;51.440;6.938;2022-07-11T13:56:52;0.68;;;0.68;;
12435;SDS011;6282;51.440;6.938;2022-07-11T13:59:18;0.60;;;0.60;;
12435;SDS011;6282;51.440;6.938;2022-07-11T14:01:45;1.05;;;0.70;;
12435;SDS011;6282;51.440;6.938;2022-07-11T14:04:12;2.33;;;0.50;;
12435;SDS011;6282;51.440;6.938;2022-07-11T14:06:41;0.93;;;0.70;;
12435;SDS011;6282;51.440;6.938;2022-07-11T14:09:08;0.60;;;0.57;;
12435;SDS011;6282;51.440;6.938;2022-07-11T14:11:34;0.60;;;0.60;;
12435;SDS011;6282;51.440;6.938;2022-07-11T14:14:01;0.57;;;0.57;;
12435;SDS011;6282;51.440;6.938;2022-07-11T14:16:28;2.03;;;0.60;;
12435;SDS011;6282;51.440;6.938;2022-07-11T14:18:56;0.50;;;0.50;;
12435;SDS011;6282;51.440;6.938;2022-07-11T14:21:25;0.47;;;0.47;;
12435;SDS011;6282;51.440;6.938;2022-07-11T14:23:54;0.85;;;0.70;;
12435;SDS011;6282;51.440;6.938;2022-07-11T14:26:21;0.68;;;0.60;;
12435;SDS011;6282;51.440;6.938;2022-07-11T14:28:48;0.60;;;0.60;;
12435;SDS011;6282;51.440;6.938;2022-07-11T14:31:15;0.95;;;0.40;;
12435;SDS011;6282;51.440;6.938;2022-07-11T14:33:42;0.60;;;0.60;;
12435;SDS011;6282;51.440;6.938;2022-07-11T14:36:09;0.60;;;0.60;;
12435;SDS011;6282;51.440;6.938;2022-07-11T14:38:36;0.60;;;0.60;;
12435;SDS011;6282;51.440;6.938;2022-07-11T14:41:05;0.60;;;0.50;;
12435;SDS011;6282;51.440;6.938;2022-07-11T14:43:33;1.27;;;0.68;;
12435;SDS011;6282;51.440;6.938;2022-07-11T14:46:00;0.63;;;0.63;;
12435;SDS011;6282;51.440;6.938;2022-07-11T14:48:27;0.57;;;0.57;;
12435;SDS011;6282;51.440;6.938;2022-07-11T14:50:54;0.63;;;0.63;;
12435;SDS011;6282;51.440;6.938;2022-07-11T14:53:21;0.93;;;0.50;;
12435;SDS011;6282;51.440;6.938;2022-07-11T14:55:48;0.60;;;0.60;;
12435;SDS011;6282;51.440;6.938;2022-07-11T14:58:16;0.47;;;0.47;;
12435;SDS011;6282;51.440;6.938;2022-07-11T15:00:43;0.50;;;0.50;;
12435;SDS011;6282;51.440;6.938;2022-07-11T15:03:11;0.60;;;0.60;;
12435;SDS011;6282;51.440;6.938;2022-07-11T15:06:07;1.40;;;0.50;;
12435;SDS011;6282;51.440;6.938;2022-07-11T15:08:35;1.38;;;0.52;;
12435;SDS011;6282;51.440;6.938;2022-07-11T15:11:20;0.50;;;0.50;;
12435;SDS011;6282;51.440;6.938;2022-07-11T15:14:06;0.50;;;0.50;;
12435;SDS011;6282;51.440;6.938;2022-07-11T15:16:33;0.70;;;0.50;;
12435;SDS011;6282;51.440;6.938;2022-07-11T15:19:00;0.63;;;0.63;;
12435;SDS011;6282;51.440;6.938;2022-07-11T15:21:28;0.75;;;0.63;;
12435;SDS011;6282;51.440;6.938;2022-07-11T15:23:55;0.60;;;0.60;;